Time;durP1;ratioP1;P1;durP2;ratioP2;P2;SDS_P1;SDS_P2;PMS_P1;PMS_P2;Temp;Humidity;BMP_temperature;BMP_pressure;BME280_temperature;BME280_humidity;BME280_pressure;Samples;Min_cycle;Max_cycle;Signal;HPM_P1;HPM_P2
2022/07/19 00:00:14;;;;;;;8.73;2.50;;;;;;;-141.50;100.00;63355.56;5015831;28;20050;-78
2022/07/19 00:02:40;;;;;;;12.02;2.53;;;;;;;-141.50;100.00;63355.56;5013744;28;20056;-77
2022/07/19 00:05:09;;;;;;;4.80;2.35;;;;;;;-141.50;100.00;63355.56;5028450;28;20057;-77
2022/07/19 00:07:36;;;;;;;5.05;2.35;;;;;;;-141.50;100.00;63355.56;5033902;28;20144;-77
2022/07/19 00:10:05;;;;;;;7.05;2.47;;;;;;;-141.50;100.00;63355.56;5030469;28;20054;-78
2022/07/19 00:12:32;;;;;;;4.03;2.30;;;;;;;-141.50;100.00;63355.56;5003641;28;20065;-78
2022/07/19 00:14:59;;;;;;;6.38;2.40;;;;;;;-141.50;100.00;63355.56;5022904;28;20050;-77
2022/07/19 00:17:25;;;;;;;3.13;1.90;;;;;;;-141.50;100.00;63355.56;5012647;28;20054;-77
2022/07/19 00:19:52;;;;;;;5.70;2.17;;;;;;;-141.50;100.00;63355.56;5012887;28;20073;-77
2022/07/19 00:22:19;;;;;;;8.57;2.50;;;;;;;-141.50;100.00;63355.56;5011602;28;20060;-76
2022/07/19 00:24:45;;;;;;;4.95;2.40;;;;;;;-141.50;100.00;63355.56;5011880;28;20504;-77
2022/07/19 00:27:12;;;;;;;7.80;2.13;;;;;;;-141.50;100.00;63355.56;5012003;28;20544;-78
2022/07/19 00:29:38;;;;;;;7.63;2.40;;;;;;;-141.50;100.00;63355.56;5013110;28;20145;-77
2022/07/19 00:32:05;;;;;;;6.55;2.67;;;;;;;-141.50;100.00;63355.56;5012385;28;20062;-77
2022/07/19 00:34:32;;;;;;;10.35;3.00;;;;;;;-141.50;100.00;63355.56;5026920;28;20049;-77
2022/07/19 00:36:58;;;;;;;8.23;2.33;;;;;;;-141.50;100.00;63355.56;5011357;28;20050;-76
2022/07/19 00:39:25;;;;;;;5.68;2.60;;;;;;;-141.50;100.00;63355.56;5018014;28;20078;-75
2022/07/19 00:41:52;;;;;;;8.05;2.42;;;;;;;-141.50;100.00;63355.56;5010714;28;20054;-77
2022/07/19 00:44:21;;;;;;;10.00;2.33;;;;;;;-141.50;100.00;63355.56;5013815;28;20046;-77
2022/07/19 00:46:48;;;;;;;9.38;2.40;;;;;;;-141.50;100.00;63355.56;4997021;28;20050;-78
2022/07/19 00:49:15;;;;;;;6.90;1.90;;;;;;;-141.50;100.00;63355.56;5012735;28;20070;-77
2022/07/19 00:51:42;;;;;;;9.27;2.45;;;;;;;-141.50;100.00;63355.56;5012152;28;20050;-77
2022/07/19 00:54:12;;;;;;;6.55;2.03;;;;;;;-141.50;100.00;63355.56;5011653;28;20049;-77
2022/07/19 00:56:40;;;;;;;6.85;2.30;;;;;;;-141.50;100.00;63355.56;5013426;28;20111;-77
2022/07/19 00:59:08;;;;;;;7.55;2.22;;;;;;;-141.50;100.00;63355.56;5012092;28;20119;-77
2022/07/19 01:01:34;;;;;;;8.20;2.20;;;;;;;-141.50;100.00;63355.56;5012229;28;20137;-78
2022/07/19 01:04:02;;;;;;;5.07;2.40;;;;;;;-141.50;100.00;63355.56;5012005;28;20065;-77
2022/07/19 01:06:29;;;;;;;9.57;2.55;;;;;;;-141.50;100.00;63355.56;5012763;28;20053;-77
2022/07/19 01:08:56;;;;;;;8.20;2.13;;;;;;;-141.50;100.00;63355.56;5011885;28;20086;-77
2022/07/19 01:11:23;;;;;;;5.95;2.35;;;;;;;-141.50;100.00;63355.56;5011255;28;20057;-77
2022/07/19 01:13:50;;;;;;;3.50;2.00;;;;;;;-141.50;100.00;63355.56;5011920;28;20046;-78
2022/07/19 01:16:16;;;;;;;4.65;1.95;;;;;;;-141.50;100.00;63355.56;5011945;28;20132;-76
2022/07/19 01:18:43;;;;;;;4.30;2.33;;;;;;;-141.50;100.00;63355.56;5011839;28;20050;-77
2022/07/19 01:21:21;;;;;;;4.95;2.60;;;;;;;-141.50;100.00;63355.56;4994559;28;20057;-77
2022/07/19 01:23:48;;;;;;;7.65;2.20;;;;;;;-141.50;100.00;63355.56;5012078;28;20503;-78
2022/07/19 01:26:16;;;;;;;5.60;2.17;;;;;;;-141.50;100.00;63355.56;5017504;28;20116;-77
2022/07/19 01:28:43;;;;;;;6.72;2.17;;;;;;;-141.50;100.00;63355.56;5018229;28;20557;-78
2022/07/19 01:31:13;;;;;;;5.72;2.67;;;;;;;-141.50;100.00;63355.56;5015825;28;20073;-78
2022/07/19 01:33:44;;;;;;;4.25;2.10;;;;;;;-141.50;100.00;63355.56;5017547;28;20112;-77
2022/07/19 01:36:11;;;;;;;5.13;2.10;;;;;;;-141.50;100.00;63355.56;5018576;28;20174;-78
2022/07/19 01:38:38;;;;;;;5.28;1.92;;;;;;;-141.50;100.00;63355.56;5022059;28;20057;-78
2022/07/19 01:41:06;;;;;;;5.18;2.08;;;;;;;-141.50;100.00;63355.56;5023242;28;20054;-78
2022/07/19 01:43:33;;;;;;;4.18;2.00;;;;;;;-141.50;100.00;63355.56;5022523;28;20049;-78
2022/07/19 01:46:01;;;;;;;6.28;1.95;;;;;;;-141.50;100.00;63355.56;5023377;28;20151;-78
2022/07/19 01:48:28;;;;;;;6.72;2.30;;;;;;;-141.50;100.00;63355.56;5023560;28;20050;-78
2022/07/19 01:50:54;;;;;;;5.10;2.20;;;;;;;-141.50;100.00;63355.56;5020238;28;20137;-76
2022/07/19 01:53:21;;;;;;;5.72;2.30;;;;;;;-141.50;100.00;63355.56;5017958;28;20065;-78
2022/07/19 01:55:47;;;;;;;7.57;2.00;;;;;;;-141.50;100.00;63355.56;5018417;28;20112;-77
2022/07/19 01:58:15;;;;;;;4.90;2.10;;;;;;;-141.50;100.00;63355.56;5017884;28;20120;-78
2022/07/19 02:00:42;;;;;;;4.43;2.20;;;;;;;-141.50;100.00;63355.56;5015779;28;20077;-77
2022/07/19 02:03:13;;;;;;;6.65;2.40;;;;;;;-141.50;100.00;63355.56;5010654;28;20132;-77
2022/07/19 02:05:40;;;;;;;5.28;1.92;;;;;;;-141.50;100.00;63355.56;5018418;28;20038;-77
2022/07/19 02:08:07;;;;;;;5.72;1.90;;;;;;;-141.50;100.00;63355.56;5016165;28;20041;-77
2022/07/19 02:10:36;;;;;;;6.28;2.17;;;;;;;-141.50;100.00;63355.56;5012732;28;20164;-77
2022/07/19 02:13:03;;;;;;;6.63;1.95;;;;;;;-141.50;100.00;63355.56;5009556;28;20141;-77
2022/07/19 02:15:29;;;;;;;5.10;2.28;;;;;;;-141.50;100.00;63355.56;4993956;28;20077;-77
2022/07/19 02:17:56;;;;;;;9.00;2.40;;;;;;;-141.50;100.00;63355.56;5010386;28;20082;-77
2022/07/19 02:20:23;;;;;;;3.78;2.10;;;;;;;-141.50;100.00;63355.56;5012348;28;20054;-77
2022/07/19 02:22:50;;;;;;;7.47;2.22;;;;;;;-141.50;100.00;63355.56;5011413;28;20074;-78
2022/07/19 02:25:17;;;;;;;6.60;2.30;;;;;;;-141.50;100.00;63355.56;5013749;28;20104;-78
2022/07/19 02:27:45;;;;;;;4.10;2.00;;;;;;;-141.50;100.00;63355.56;5013028;28;20074;-77
2022/07/19 02:30:13;;;;;;;3.75;2.20;;;;;;;-141.50;100.00;63355.56;5013568;28;20084;-77
2022/07/19 02:32:40;;;;;;;7.07;2.20;;;;;;;-141.50;100.00;63355.56;5010684;28;20069;-78
2022/07/19 02:35:08;;;;;;;4.03;2.20;;;;;;;-141.50;100.00;63355.56;5012950;28;20058;-77
2022/07/19 02:37:35;;;;;;;4.68;2.25;;;;;;;-141.50;100.00;63355.56;5012859;28;20057;-77
2022/07/19 02:40:02;;;;;;;8.30;2.33;;;;;;;-141.50;100.00;63355.56;5019285;28;20112;-77
2022/07/19 02:42:29;;;;;;;3.42;2.20;;;;;;;-141.50;100.00;63355.56;4991332;28;20060;-77
2022/07/19 02:44:55;;;;;;;4.50;2.15;;;;;;;-141.50;100.00;63355.56;4992406;28;20120;-77
2022/07/19 02:47:22;;;;;;;6.43;2.22;;;;;;;-141.50;100.00;63355.56;4991864;28;20058;-77
2022/07/19 02:49:49;;;;;;;3.20;1.58;;;;;;;-141.50;100.00;63355.56;4993556;28;20074;-77
2022/07/19 02:52:15;;;;;;;5.32;2.10;;;;;;;-141.50;100.00;63355.56;4991795;28;20085;-76
2022/07/19 02:54:42;;;;;;;5.13;2.00;;;;;;;-141.50;100.00;63355.56;4990407;28;20090;-76
2022/07/19 02:57:09;;;;;;;7.43;2.35;;;;;;;-141.50;100.00;63355.56;4992230;28;20057;-78
2022/07/19 02:59:35;;;;;;;7.45;2.15;;;;;;;-141.50;100.00;63355.56;4992191;28;20120;-77
2022/07/19 03:02:04;;;;;;;6.68;2.17;;;;;;;-141.50;100.00;63355.56;4991413;28;20054;-77
2022/07/19 03:04:30;;;;;;;3.63;2.00;;;;;;;-141.50;100.00;63355.56;4991038;28;20046;-76
2022/07/19 03:06:57;;;;;;;4.03;2.10;;;;;;;-141.50;100.00;63355.56;4990947;28;20058;-77
2022/07/19 03:09:23;;;;;;;5.20;2.33;;;;;;;-141.50;100.00;63355.56;4993585;28;20046;-76
2022/07/19 03:11:50;;;;;;;6.28;2.28;;;;;;;-141.50;100.00;63355.56;5010685;28;20089;-77
2022/07/19 03:14:17;;;;;;;5.72;2.28;;;;;;;-141.50;100.00;63355.56;5016463;28;20195;-78
2022/07/19 03:16:43;;;;;;;9.25;2.70;;;;;;;-141.50;100.00;63355.56;5021034;28;20034;-77
2022/07/19 03:19:10;;;;;;;7.40;2.30;;;;;;;-141.50;100.00;63355.56;5029292;28;20037;-77
2022/07/19 03:21:36;;;;;;;4.32;2.42;;;;;;;-141.50;100.00;63355.56;5032337;28;20105;-77
2022/07/19 03:24:03;;;;;;;6.40;2.40;;;;;;;-141.50;100.00;63355.56;5030606;28;20048;-77
2022/07/19 03:26:30;;;;;;;8.05;2.95;;;;;;;-141.50;100.00;63355.56;5021454;28;20068;-76
2022/07/19 03:28:56;;;;;;;6.72;2.90;;;;;;;-141.50;100.00;63355.56;5018363;28;20080;-77
2022/07/19 03:31:23;;;;;;;12.20;2.80;;;;;;;-141.50;100.00;63355.56;5016107;28;20085;-78
2022/07/19 03:33:50;;;;;;;6.40;2.65;;;;;;;-141.50;100.00;63355.56;5024238;28;20045;-78
2022/07/19 03:36:16;;;;;;;6.18;2.70;;;;;;;-141.50;100.00;63355.56;5016332;28;20073;-76
2022/07/19 03:38:43;;;;;;;5.53;2.45;;;;;;;-141.50;100.00;63355.56;5020575;28;20522;-76
2022/07/19 03:41:09;;;;;;;6.68;2.65;;;;;;;-141.50;100.00;63355.56;5025458;28;20054;-77
2022/07/19 03:43:37;;;;;;;7.18;2.65;;;;;;;-141.50;100.00;63355.56;5006722;28;20076;-77
2022/07/19 03:46:04;;;;;;;5.32;2.42;;;;;;;-141.50;100.00;63355.56;5005465;28;20200;-78
2022/07/19 03:48:31;;;;;;;8.70;2.70;;;;;;;-141.50;100.00;63355.56;5021323;28;20057;-78
2022/07/19 03:50:57;;;;;;;7.70;2.50;;;;;;;-141.50;100.00;63355.56;4997969;28;20053;-77
2022/07/19 03:53:24;;;;;;;6.15;2.55;;;;;;;-141.50;100.00;63355.56;5011239;28;20054;-76
2022/07/19 03:55:50;;;;;;;9.68;2.55;;;;;;;-141.50;100.00;63355.56;4998565;28;20483;-77
2022/07/19 03:58:17;;;;;;;5.25;2.22;;;;;;;-141.50;100.00;63355.56;4991891;28;20088;-78
2022/07/19 04:00:45;;;;;;;9.75;2.50;;;;;;;-141.50;100.00;63355.56;4990745;28;20086;-77
2022/07/19 04:03:12;;;;;;;9.63;3.00;;;;;;;-141.50;100.00;63355.56;4974452;28;20062;-78
2022/07/19 04:05:39;;;;;;;7.18;2.78;;;;;;;-141.50;100.00;63355.56;4994471;28;20495;-78
2022/07/19 04:08:06;;;;;;;6.38;2.60;;;;;;;-141.50;100.00;63355.56;4993112;28;20108;-78
2022/07/19 04:10:32;;;;;;;6.68;2.40;;;;;;;-141.50;100.00;63355.56;4993220;28;20058;-77
2022/07/19 04:12:59;;;;;;;6.45;2.38;;;;;;;-141.50;100.00;63355.56;4993262;28;20074;-79
2022/07/19 04:15:25;;;;;;;6.68;2.75;;;;;;;-141.50;100.00;63355.56;4993440;28;20074;-78
2022/07/19 04:17:52;;;;;;;6.30;2.58;;;;;;;-141.50;100.00;63355.56;4992047;28;20070;-78
2022/07/19 04:20:19;;;;;;;7.57;3.00;;;;;;;-141.50;100.00;63355.56;4992786;28;20109;-78
2022/07/19 04:22:45;;;;;;;8.20;2.53;;;;;;;-141.50;100.00;63355.56;4991890;28;20464;-76
2022/07/19 04:25:12;;;;;;;8.00;2.60;;;;;;;-141.50;100.00;63355.56;4990939;28;20087;-76
2022/07/19 04:27:38;;;;;;;8.82;2.70;;;;;;;-141.50;100.00;63355.56;4990357;28;20058;-76
2022/07/19 04:30:05;;;;;;;10.35;2.60;;;;;;;-141.50;100.00;63355.56;4991395;28;20046;-76
2022/07/19 04:32:33;;;;;;;10.07;2.80;;;;;;;-141.50;100.00;63355.56;4990765;28;20507;-76
2022/07/19 04:35:00;;;;;;;6.97;2.60;;;;;;;-141.50;100.00;63355.56;4992446;28;20081;-78
2022/07/19 04:37:27;;;;;;;11.18;3.45;;;;;;;-141.50;100.00;63355.56;4995785;28;20145;-79
2022/07/19 04:39:54;;;;;;;7.57;2.60;;;;;;;-141.50;100.00;63355.56;5019659;28;20531;-76
2022/07/19 04:42:20;;;;;;;4.47;2.30;;;;;;;-141.50;100.00;63355.56;5010741;28;20315;-78
2022/07/19 04:44:47;;;;;;;9.07;2.53;;;;;;;-141.50;100.00;63355.56;5010829;28;20065;-77
2022/07/19 04:47:13;;;;;;;9.55;2.67;;;;;;;-141.50;100.00;63355.56;5011876;28;20050;-78
2022/07/19 04:49:40;;;;;;;8.38;2.80;;;;;;;-141.50;100.00;63355.56;5012639;28;20061;-75
2022/07/19 04:52:07;;;;;;;9.63;2.72;;;;;;;-141.50;100.00;63355.56;5009263;28;20062;-77
2022/07/19 04:54:34;;;;;;;6.32;2.60;;;;;;;-141.50;100.00;63355.56;5008906;28;20128;-77
2022/07/19 04:57:00;;;;;;;9.90;2.78;;;;;;;-141.50;100.00;63355.56;5008357;28;20077;-77
2022/07/19 04:59:27;;;;;;;10.27;2.75;;;;;;;-141.50;100.00;63355.56;5010529;28;20419;-77
2022/07/19 05:01:54;;;;;;;4.75;2.50;;;;;;;-141.50;100.00;63355.56;5009596;28;20470;-77
2022/07/19 05:04:20;;;;;;;7.18;2.60;;;;;;;-141.50;100.00;63355.56;5011790;28;20046;-78
2022/07/19 05:06:49;;;;;;;9.13;2.72;;;;;;;-141.50;100.00;63355.56;5013218;28;20097;-77
2022/07/19 05:09:16;;;;;;;11.98;2.90;;;;;;;-141.50;100.00;63355.56;5014213;28;20077;-79
2022/07/19 05:11:44;;;;;;;5.93;2.38;;;;;;;-141.50;100.00;63355.56;5019881;28;20123;-80
2022/07/19 05:14:10;;;;;;;7.90;2.70;;;;;;;-141.50;100.00;63355.56;5021949;28;20107;-80
2022/07/19 05:16:37;;;;;;;5.50;2.70;;;;;;;-141.50;100.00;63355.56;5021917;28;20070;-79
2022/07/19 05:19:04;;;;;;;4.93;2.30;;;;;;;-141.50;100.00;63355.56;5021218;28;20495;-78
2022/07/19 05:21:30;;;;;;;4.85;2.53;;;;;;;-141.50;100.00;63355.56;5019832;28;20060;-79
2022/07/19 05:23:57;;;;;;;7.10;2.53;;;;;;;-141.50;100.00;63355.56;5018864;28;20049;-78
2022/07/19 05:26:24;;;;;;;9.18;2.45;;;;;;;-141.50;100.00;63355.56;5017935;28;20077;-78
2022/07/19 05:28:51;;;;;;;11.13;2.50;;;;;;;-141.50;100.00;63355.56;5016275;28;20065;-77
2022/07/19 05:31:17;;;;;;;6.38;2.20;;;;;;;-141.50;100.00;63355.56;5029431;28;20484;-78
2022/07/19 05:33:44;;;;;;;9.45;2.63;;;;;;;-141.50;100.00;63355.56;5013281;28;20065;-77
2022/07/19 05:36:11;;;;;;;8.30;2.78;;;;;;;-141.50;100.00;63355.56;5013009;28;20089;-77
2022/07/19 05:38:38;;;;;;;11.57;2.47;;;;;;;-141.50;100.00;63355.56;5022057;28;20049;-78
2022/07/19 05:41:10;;;;;;;6.32;2.47;;;;;;;-141.50;100.00;63355.56;5023056;28;20076;-79
2022/07/19 05:43:38;;;;;;;9.38;2.58;;;;;;;-141.50;100.00;63355.56;5020553;28;20507;-80
2022/07/19 05:46:05;;;;;;;17.40;2.55;;;;;;;-141.50;100.00;63355.56;5022396;28;20083;-80
2022/07/19 05:48:32;;;;;;;15.98;2.85;;;;;;;-141.50;100.00;63355.56;5023060;28;20062;-78
2022/07/19 05:50:59;;;;;;;15.02;2.40;;;;;;;-141.50;100.00;63355.56;5023126;28;20053;-79
2022/07/19 05:53:26;;;;;;;13.73;2.85;;;;;;;-141.50;100.00;63355.56;5023685;28;20069;-80
2022/07/19 05:55:53;;;;;;;13.00;2.70;;;;;;;-141.50;100.00;63355.56;5005946;28;20129;-79
2022/07/19 05:58:20;;;;;;;11.45;2.47;;;;;;;-141.50;100.00;63355.56;5004989;28;20065;-80
2022/07/19 06:03:33;;;;;;;7.55;2.30;;;;;;;-141.50;100.00;63355.56;5023449;28;20049;-79
2022/07/19 06:06:00;;;;;;;8.30;2.30;;;;;;;-141.50;100.00;63355.56;5007889;28;20041;-79
2022/07/19 06:08:27;;;;;;;5.90;1.98;;;;;;;-141.50;100.00;63355.56;5025356;28;20141;-79
2022/07/19 06:10:54;;;;;;;9.23;2.40;;;;;;;-141.50;100.00;63355.56;5024304;28;20057;-79
2022/07/19 06:13:21;;;;;;;9.82;2.50;;;;;;;-141.50;100.00;63355.56;5024455;28;20050;-79
2022/07/19 06:15:47;;;;;;;11.30;2.33;;;;;;;-141.50;100.00;63355.56;5024965;28;20070;-79
2022/07/19 06:18:14;;;;;;;12.27;2.47;;;;;;;-141.50;100.00;63355.56;5025109;28;20061;-79
2022/07/19 06:20:41;;;;;;;12.95;2.67;;;;;;;-141.50;100.00;63355.56;5025008;28;20080;-80
2022/07/19 06:23:07;;;;;;;11.93;2.40;;;;;;;-141.50;100.00;63355.56;5006540;28;20084;-79
2022/07/19 06:25:34;;;;;;;12.48;2.28;;;;;;;-141.50;100.00;63355.56;5023711;28;20049;-80
2022/07/19 06:28:00;;;;;;;5.72;2.25;;;;;;;-141.50;100.00;63355.56;5022782;28;20081;-78
2022/07/19 06:30:27;;;;;;;8.13;2.20;;;;;;;-141.50;100.00;63355.56;5017532;28;20054;-79
2022/07/19 06:32:54;;;;;;;8.90;2.28;;;;;;;-141.50;100.00;63355.56;5016884;28;20438;-79
2022/07/19 06:35:20;;;;;;;10.50;2.30;;;;;;;-141.50;100.00;63355.56;5025792;28;20042;-78
2022/07/19 06:37:47;;;;;;;4.80;1.73;;;;;;;-141.50;100.00;63355.56;5026223;28;20212;-78
2022/07/19 06:40:13;;;;;;;7.68;1.90;;;;;;;-141.50;100.00;63355.56;5036615;28;20050;-78
2022/07/19 06:42:40;;;;;;;7.78;2.03;;;;;;;-141.50;100.00;63355.56;5022371;28;20426;-79
2022/07/19 06:45:07;;;;;;;7.38;1.80;;;;;;;-141.50;100.00;63355.56;5023373;28;20046;-80
2022/07/19 06:47:34;;;;;;;8.48;1.88;;;;;;;-141.50;100.00;63355.56;5023405;28;20046;-79
2022/07/19 06:50:01;;;;;;;5.70;1.85;;;;;;;-141.50;100.00;63355.56;5002057;28;20049;-79
2022/07/19 06:52:48;;;;;;;7.10;1.60;;;;;;;-141.50;100.00;63355.56;5007998;28;20110;-79
2022/07/19 06:55:14;;;;;;;5.20;1.52;;;;;;;-141.50;100.00;63355.56;5018573;28;20076;-78
2022/07/19 06:57:41;;;;;;;5.47;1.60;;;;;;;-141.50;100.00;63355.56;5002275;28;20276;-78
2022/07/19 07:00:09;;;;;;;7.85;1.70;;;;;;;-141.50;100.00;63355.56;5021391;28;20073;-79
2022/07/19 07:02:36;;;;;;;7.65;1.77;;;;;;;-141.50;100.00;63355.56;5019252;28;20056;-79
2022/07/19 07:05:05;;;;;;;5.78;1.70;;;;;;;-141.50;100.00;63355.56;5020648;28;20046;-79
2022/07/19 07:07:32;;;;;;;6.45;1.85;;;;;;;-141.50;100.00;63355.56;5024324;28;20416;-79
2022/07/19 07:10:01;;;;;;;6.88;1.80;;;;;;;-141.50;100.00;63355.56;5023913;28;20049;-79
2022/07/19 07:12:35;;;;;;;3.65;1.45;;;;;;;-141.50;100.00;63355.56;5021000;28;20057;-79
2022/07/19 07:15:02;;;;;;;6.53;1.60;;;;;;;-141.50;100.00;63355.56;5022778;28;20106;-79
2022/07/19 07:17:29;;;;;;;3.70;1.40;;;;;;;-141.50;100.00;63355.56;5021454;28;20053;-79
2022/07/19 07:19:56;;;;;;;5.82;1.35;;;;;;;-141.50;100.00;63355.56;5020020;28;20050;-78
2022/07/19 07:38:04;;;;;;;4.32;1.50;;;;;;;-141.50;100.00;63355.56;5018190;28;20045;-79
2022/07/19 07:40:31;;;;;;;2.47;1.40;;;;;;;-141.50;100.00;63355.56;5024410;28;20510;-76
2022/07/19 07:42:57;;;;;;;5.72;1.60;;;;;;;-141.50;100.00;63355.56;5015444;28;20128;-78
2022/07/19 07:45:24;;;;;;;5.60;1.73;;;;;;;-141.50;100.00;63355.56;5020523;28;20046;-79
2022/07/19 07:47:50;;;;;;;6.38;1.60;;;;;;;-141.50;100.00;63355.56;5016274;28;20132;-78
2022/07/19 07:50:17;;;;;;;3.95;1.48;;;;;;;-141.50;100.00;63355.56;5018446;28;20053;-79
2022/07/19 07:52:43;;;;;;;4.82;1.60;;;;;;;-141.50;100.00;63355.56;5003453;28;20054;-78
2022/07/19 07:55:10;;;;;;;2.25;1.30;;;;;;;-141.50;100.00;63355.56;5016134;28;20100;-78
2022/07/19 07:57:53;;;;;;;4.93;1.63;;;;;;;-141.50;100.00;63355.56;5019551;28;20057;-78
2022/07/19 08:00:21;;;;;;;6.30;1.63;;;;;;;-141.50;100.00;63355.56;5030270;28;20073;-79
2022/07/19 08:02:49;;;;;;;3.33;1.70;;;;;;;-141.50;100.00;63355.56;5028922;28;20050;-78
2022/07/19 08:05:21;;;;;;;3.35;1.42;;;;;;;-141.50;100.00;63355.56;5031882;28;20048;-78
2022/07/19 08:07:49;;;;;;;3.83;1.48;;;;;;;-141.50;100.00;63355.56;5023310;28;20089;-78
2022/07/19 08:10:21;;;;;;;4.45;1.50;;;;;;;-141.50;100.00;63355.56;5015488;28;20046;-77
2022/07/19 08:12:47;;;;;;;3.80;1.45;;;;;;;-141.50;100.00;63355.56;5013230;28;20053;-78
2022/07/19 08:15:14;;;;;;;7.50;1.52;;;;;;;-141.50;100.00;63355.56;5021588;28;20050;-78
2022/07/19 08:17:41;;;;;;;5.97;1.98;;;;;;;-141.50;100.00;63355.56;5017360;28;20050;-78
2022/07/19 08:20:08;;;;;;;6.88;1.80;;;;;;;-141.50;100.00;63355.56;5013802;28;20084;-78
2022/07/19 08:22:35;;;;;;;4.05;1.50;;;;;;;-141.50;100.00;63355.56;5009976;28;20050;-79
2022/07/19 08:25:02;;;;;;;4.97;1.52;;;;;;;-141.50;100.00;63355.56;5018817;28;20045;-79
2022/07/19 08:27:29;;;;;;;11.20;1.48;;;;;;;-141.50;100.00;63355.56;5029334;28;20054;-79
2022/07/19 08:29:56;;;;;;;6.00;1.52;;;;;;;-141.50;100.00;63355.56;5031852;28;20050;-79
2022/07/19 08:32:22;;;;;;;3.35;1.48;;;;;;;-141.50;100.00;63355.56;5024224;28;20530;-79
2022/07/19 08:34:49;;;;;;;2.90;1.27;;;;;;;-141.50;100.00;63355.56;5020161;28;20049;-79
2022/07/19 08:37:18;;;;;;;2.85;1.80;;;;;;;-141.50;100.00;63355.56;5023684;28;20083;-79
2022/07/19 08:39:45;;;;;;;5.65;1.60;;;;;;;-141.50;100.00;63355.56;5029323;28;20061;-80
2022/07/19 08:42:12;;;;;;;2.80;1.40;;;;;;;-141.50;100.00;63355.56;5016955;28;20053;-79
2022/07/19 08:44:42;;;;;;;6.63;1.60;;;;;;;-141.50;100.00;63355.56;5038092;28;20072;-79
2022/07/19 08:47:11;;;;;;;6.15;1.83;;;;;;;-141.50;100.00;63355.56;5007954;28;20057;-79
2022/07/19 08:49:41;;;;;;;3.33;1.70;;;;;;;-141.50;100.00;63355.56;5022969;28;20054;-79
2022/07/19 08:52:08;;;;;;;4.75;1.90;;;;;;;-141.50;100.00;63355.56;5023039;28;20229;-79
2022/07/19 08:54:34;;;;;;;10.88;2.03;;;;;;;-141.50;100.00;63355.56;5019151;28;20100;-78
2022/07/19 08:59:47;;;;;;;8.88;2.17;;;;;;;-141.50;100.00;63355.56;5025301;28;20081;-78
2022/07/19 09:02:14;;;;;;;4.78;1.65;;;;;;;-141.50;100.00;63355.56;5026676;28;20054;-80
2022/07/19 09:04:41;;;;;;;5.80;1.70;;;;;;;-141.50;100.00;63355.56;5027981;28;20092;-80
2022/07/19 09:07:08;;;;;;;6.13;1.63;;;;;;;-141.50;100.00;63355.56;5027078;28;20080;-79
2022/07/19 09:09:36;;;;;;;4.40;1.70;;;;;;;-141.50;100.00;63355.56;5026292;28;20050;-79
2022/07/19 09:12:04;;;;;;;5.05;1.83;;;;;;;-141.50;100.00;63355.56;5021347;28;20058;-79
2022/07/19 09:14:36;;;;;;;3.63;1.80;;;;;;;-141.50;100.00;63355.56;5018379;28;20064;-79
2022/07/19 09:17:09;;;;;;;5.40;1.77;;;;;;;-141.50;100.00;63355.56;5017463;28;20049;-79
2022/07/19 09:19:38;;;;;;;3.42;1.75;;;;;;;-141.50;100.00;63355.56;5024300;28;20046;-79
2022/07/19 09:22:10;;;;;;;3.60;1.80;;;;;;;-141.50;100.00;63355.56;5022411;28;20049;-78
2022/07/19 09:24:42;;;;;;;6.22;1.77;;;;;;;-141.50;100.00;63355.56;5015019;28;20273;-79
2022/07/19 09:30:54;;;;;;;10.60;1.83;;;;;;;-141.50;100.00;63355.56;5020944;28;20053;-79
2022/07/19 09:33:28;;;;;;;3.70;1.90;;;;;;;-141.50;100.00;63355.56;5029541;28;20325;-78
2022/07/19 09:35:56;;;;;;;3.60;1.80;;;;;;;-141.50;100.00;63355.56;5018647;28;20061;-79
2022/07/19 09:38:27;;;;;;;3.20;1.65;;;;;;;-141.50;100.00;63355.56;5001170;28;20431;-79
2022/07/19 09:41:17;;;;;;;2.92;1.75;;;;;;;-141.50;100.00;63355.56;5021351;28;20054;-79
2022/07/19 09:44:03;;;;;;;6.95;1.85;;;;;;;-141.50;100.00;63355.56;5021103;28;20083;-80
2022/07/19 09:46:34;;;;;;;6.47;1.90;;;;;;;-141.50;100.00;63355.56;5020955;28;20072;-79
2022/07/19 09:49:03;;;;;;;4.50;1.80;;;;;;;-141.50;100.00;63355.56;5010229;28;20049;-79
2022/07/19 09:51:32;;;;;;;2.85;1.63;;;;;;;-141.50;100.00;63355.56;5029986;28;20050;-79
2022/07/19 09:54:01;;;;;;;7.13;2.00;;;;;;;-141.50;100.00;63355.56;5021568;28;20050;-79
2022/07/19 09:56:29;;;;;;;6.85;1.77;;;;;;;-141.50;100.00;63355.56;5020001;28;20042;-80
2022/07/19 09:58:57;;;;;;;3.63;1.83;;;;;;;-141.50;100.00;63355.56;5019552;28;20141;-79
2022/07/19 10:01:25;;;;;;;5.35;1.80;;;;;;;-141.50;100.00;63355.56;5020513;28;20061;-80
2022/07/19 10:03:56;;;;;;;4.43;1.88;;;;;;;-141.50;100.00;63355.56;5020578;28;20056;-79
2022/07/19 10:06:25;;;;;;;6.82;1.83;;;;;;;-141.50;100.00;63355.56;5022341;28;20069;-78
2022/07/19 10:08:53;;;;;;;10.20;1.77;;;;;;;-141.50;100.00;63355.56;5021806;28;20050;-80
2022/07/19 10:11:21;;;;;;;4.15;2.03;;;;;;;-141.50;100.00;63355.56;5021782;28;20049;-81
2022/07/19 10:13:51;;;;;;;4.75;2.35;;;;;;;-141.50;100.00;63355.56;5021225;28;20049;-80
2022/07/19 10:16:24;;;;;;;5.32;2.20;;;;;;;-141.50;100.00;63355.56;5022710;28;20494;-81
2022/07/19 10:19:15;;;;;;;5.97;2.10;;;;;;;-141.50;100.00;63355.56;5006250;28;20062;-80
2022/07/19 10:21:43;;;;;;;4.63;2.13;;;;;;;-141.50;100.00;63355.56;5021011;28;20177;-80
2022/07/19 10:24:10;;;;;;;9.00;1.80;;;;;;;-141.50;100.00;63355.56;5020404;28;20058;-80
2022/07/19 10:26:42;;;;;;;8.02;2.10;;;;;;;-141.50;100.00;63355.56;5021750;28;20046;-80
2022/07/19 10:29:09;;;;;;;6.20;2.10;;;;;;;-141.50;100.00;63355.56;5022941;28;20073;-79
2022/07/19 10:31:38;;;;;;;3.65;1.83;;;;;;;-141.50;100.00;63355.56;5021796;28;20049;-81
2022/07/19 10:34:10;;;;;;;5.60;2.15;;;;;;;-141.50;100.00;63355.56;5024212;28;20120;-80
2022/07/19 10:36:39;;;;;;;8.23;2.10;;;;;;;-141.50;100.00;63355.56;5021061;28;20042;-80
2022/07/19 10:39:21;;;;;;;5.75;1.77;;;;;;;-141.50;100.00;63355.56;5019311;28;20069;-80
2022/07/19 10:42:23;;;;;;;5.28;1.92;;;;;;;-141.50;100.00;63355.56;5030414;28;20045;-78
2022/07/19 10:45:04;;;;;;;7.13;2.10;;;;;;;-141.50;100.00;63355.56;4981367;28;20133;-79
2022/07/19 10:47:43;;;;;;;6.20;1.90;;;;;;;-141.50;100.00;63355.56;5016944;28;20071;-79
2022/07/19 10:50:14;;;;;;;6.13;2.22;;;;;;;-141.50;100.00;63355.56;5017912;28;20081;-80
2022/07/19 10:52:42;;;;;;;6.88;2.28;;;;;;;-141.50;100.00;63355.56;5016477;28;20145;-79
2022/07/19 10:55:18;;;;;;;8.18;2.30;;;;;;;-141.50;100.00;63355.56;5018422;28;20046;-79
2022/07/19 10:57:48;;;;;;;6.80;2.30;;;;;;;-141.50;100.00;63355.56;5019422;28;20411;-80
2022/07/19 11:00:20;;;;;;;8.00;1.90;;;;;;;-141.50;100.00;63355.56;5020332;28;20046;-79
2022/07/19 11:02:48;;;;;;;4.07;2.00;;;;;;;-141.50;100.00;63355.56;5016136;28;20422;-79
2022/07/19 11:05:26;;;;;;;5.97;2.22;;;;;;;-141.50;100.00;63355.56;5014865;28;20061;-79
2022/07/19 11:07:55;;;;;;;8.23;2.10;;;;;;;-141.50;100.00;63355.56;5019778;28;20112;-80
2022/07/19 11:10:23;;;;;;;3.97;2.00;;;;;;;-141.50;100.00;63355.56;5013861;28;20053;-79
2022/07/19 11:12:49;;;;;;;7.25;2.28;;;;;;;-141.50;100.00;63355.56;5013863;28;20547;-79
2022/07/19 11:15:16;;;;;;;9.48;2.15;;;;;;;-141.50;100.00;63355.56;5021556;28;20077;-79
2022/07/19 11:17:51;;;;;;;4.93;2.30;;;;;;;-141.50;100.00;63355.56;5022500;28;20112;-79
2022/07/19 11:20:19;;;;;;;6.47;2.35;;;;;;;-141.50;100.00;63355.56;5026851;28;20111;-79
2022/07/19 11:22:48;;;;;;;6.32;2.30;;;;;;;-141.50;100.00;63355.56;5017982;28;20496;-79
2022/07/19 11:25:22;;;;;;;7.15;2.30;;;;;;;-141.50;100.00;63355.56;5018688;28;20136;-79
2022/07/19 11:27:48;;;;;;;5.30;2.25;;;;;;;-141.50;100.00;63355.56;5021758;28;20046;-79
2022/07/19 11:30:16;;;;;;;3.95;2.30;;;;;;;-141.50;100.00;63355.56;5000188;28;20054;-79
2022/07/19 11:32:43;;;;;;;4.43;2.15;;;;;;;-141.50;100.00;63355.56;5023619;28;20100;-80
2022/07/19 11:35:12;;;;;;;6.22;2.50;;;;;;;-141.50;100.00;63355.56;5024952;28;20053;-80
2022/07/19 11:37:41;;;;;;;10.20;2.45;;;;;;;-141.50;100.00;63355.56;5026579;28;20049;-80